createdAt,value
2019-01-24T00:04:51.642Z,0.90
2019-01-24T00:09:59.574Z,0.63
2019-01-24T00:15:09.763Z,0.50
2019-01-24T00:20:20.864Z,0.60
2019-01-24T00:25:30.742Z,0.50
2019-01-24T00:30:37.853Z,0.57
2019-01-24T00:35:50.299Z,0.70
2019-01-24T00:41:00.024Z,0.73
2019-01-24T00:46:08.554Z,0.53
2019-01-24T00:51:17.306Z,0.83
2019-01-24T00:56:26.987Z,0.60
2019-01-24T01:01:34.890Z,0.70
2019-01-24T01:06:41.410Z,0.73
2019-01-24T01:11:48.522Z,0.60
2019-01-24T01:16:55.247Z,0.70
2019-01-24T01:22:02.723Z,0.70
2019-01-24T01:27:12.397Z,0.80
2019-01-24T01:32:19.366Z,1.00
2019-01-24T01:37:27.138Z,0.53
2019-01-24T01:42:33.988Z,0.67
2019-01-24T01:47:41.248Z,0.70
2019-01-24T01:52:48.498Z,0.80
2019-01-24T01:57:55.534Z,0.80
2019-01-24T02:03:03.263Z,0.70
2019-01-24T02:08:10.495Z,0.80
2019-01-24T02:13:22.717Z,1.97
2019-01-24T02:18:28.870Z,1.10
2019-01-24T02:23:35.701Z,1.20
2019-01-24T02:28:47.620Z,1.13
2019-01-24T02:33:56.298Z,0.80
2019-01-24T02:39:05.620Z,0.63
2019-01-24T02:44:18.324Z,0.70
2019-01-24T02:49:28.465Z,0.73
2019-01-24T02:54:34.501Z,0.73
2019-01-24T02:59:40.807Z,0.80
2019-01-24T03:04:47.254Z,0.60
2019-01-24T03:09:54.546Z,1.00
2019-01-24T03:15:00.913Z,0.90
2019-01-24T03:20:08.714Z,1.00
2019-01-24T03:25:15.693Z,1.13
2019-01-24T03:30:23.718Z,0.97
2019-01-24T03:35:31.578Z,1.10
2019-01-24T03:40:39.719Z,1.30
2019-01-24T03:45:47.482Z,1.00
2019-01-24T03:50:56.674Z,1.10
2019-01-24T03:56:04.629Z,0.60
2019-01-24T04:01:15.205Z,0.80
2019-01-24T04:06:21.034Z,0.80
2019-01-24T04:11:28.679Z,0.50
2019-01-24T04:16:35.090Z,0.80
2019-01-24T04:21:43.030Z,0.50
2019-01-24T04:26:50.168Z,0.70
2019-01-24T04:31:56.216Z,0.80
2019-01-24T04:37:03.875Z,0.50
2019-01-24T04:42:12.721Z,0.87
2019-01-24T04:47:19.449Z,0.77
2019-01-24T04:52:27.303Z,0.60
2019-01-24T04:57:33.538Z,0.63
2019-01-24T05:02:41.787Z,0.60
2019-01-24T05:07:50.190Z,0.80
2019-01-24T05:12:57.840Z,0.50
2019-01-24T05:18:08.031Z,0.50
2019-01-24T05:23:15.561Z,0.50
2019-01-24T05:28:25.416Z,0.50
2019-01-24T05:33:35.171Z,0.60
2019-01-24T05:38:42.983Z,0.67
2019-01-24T05:43:50.546Z,0.90
2019-01-24T05:49:00.430Z,0.70
2019-01-24T05:54:10.319Z,0.60
2019-01-24T05:59:17.899Z,0.60
2019-01-24T06:04:28.400Z,0.40
2019-01-24T06:09:39.388Z,0.60
2019-01-24T06:14:47.535Z,0.57
2019-01-24T06:19:54.217Z,0.70
2019-01-24T06:25:01.809Z,0.40
2019-01-24T06:30:13.664Z,0.57
2019-01-24T06:35:21.143Z,0.77
2019-01-24T06:40:28.840Z,0.70
2019-01-24T06:45:37.042Z,0.60
2019-01-24T06:50:44.566Z,0.90
2019-01-24T06:55:51.566Z,0.80
2019-01-24T07:00:59.087Z,0.97
2019-01-24T07:06:06.513Z,0.50
2019-01-24T07:11:13.603Z,0.90
2019-01-24T07:16:21.146Z,0.70
2019-01-24T07:21:28.748Z,0.60
2019-01-24T07:26:36.610Z,0.50
2019-01-24T07:31:43.871Z,1.10
2019-01-24T07:36:52.469Z,0.50
2019-01-24T07:42:00.874Z,0.90
2019-01-24T07:47:11.721Z,0.47
2019-01-24T07:52:18.120Z,0.50
2019-01-24T07:57:26.042Z,0.90
2019-01-24T08:02:33.539Z,0.50
2019-01-24T08:07:43.619Z,0.80
2019-01-24T08:12:50.875Z,0.90
2019-01-24T08:17:59.122Z,1.30
2019-01-24T08:23:06.468Z,0.80
2019-01-24T08:28:14.362Z,0.70
2019-01-24T08:33:21.767Z,0.80
2019-01-24T08:38:29.647Z,0.50
2019-01-24T08:43:36.795Z,1.07
2019-01-24T08:48:44.840Z,0.57
2019-01-24T08:53:52.375Z,0.53
2019-01-24T08:59:00.575Z,1.20
2019-01-24T09:04:07.962Z,0.80
2019-01-24T09:09:14.568Z,0.57
2019-01-24T09:14:23.294Z,0.70
2019-01-24T09:19:31.706Z,0.53
2019-01-24T09:24:38.070Z,0.60
2019-01-24T09:29:44.147Z,0.80
2019-01-24T09:34:51.619Z,0.70
2019-01-24T09:39:57.925Z,1.13
2019-01-24T09:45:05.101Z,0.50
2019-01-24T09:50:15.637Z,1.13
2019-01-24T09:55:23.391Z,1.50
2019-01-24T10:00:35.884Z,0.90
2019-01-24T10:05:43.640Z,1.20
2019-01-24T10:10:51.448Z,0.90
2019-01-24T10:15:59.381Z,0.90
2019-01-24T10:21:06.048Z,0.90
2019-01-24T10:26:13.817Z,0.80
2019-01-24T10:31:21.421Z,0.70
2019-01-24T10:36:27.827Z,0.77
2019-01-24T10:41:33.753Z,0.47
2019-01-24T10:46:41.391Z,0.63
2019-01-24T10:51:48.037Z,2.23
2019-01-24T10:56:54.952Z,1.00
2019-01-24T11:02:02.980Z,0.80
2019-01-24T11:07:11.521Z,0.60
2019-01-24T11:12:17.504Z,0.90
2019-01-24T11:17:24.415Z,0.53
2019-01-24T11:22:32.110Z,0.70
2019-01-24T11:27:38.729Z,0.60
2019-01-24T11:32:44.709Z,0.70
2019-01-24T11:37:52.490Z,0.60
2019-01-24T11:43:01.981Z,0.53
2019-01-24T11:48:11.943Z,0.70
2019-01-24T11:53:19.919Z,0.70
2019-01-24T11:58:28.376Z,0.60
2019-01-24T12:03:36.099Z,0.60
2019-01-24T12:08:45.143Z,0.70
2019-01-24T12:13:54.370Z,0.90
2019-01-24T12:19:02.027Z,0.50
2019-01-24T12:24:11.708Z,1.00
2019-01-24T12:29:18.568Z,0.73
2019-01-24T12:34:26.451Z,0.77
2019-01-24T12:39:33.899Z,0.70
2019-01-24T12:44:41.109Z,1.10
2019-01-24T12:49:48.489Z,0.90
2019-01-24T12:54:54.373Z,0.80
2019-01-24T13:00:00.643Z,0.70
2019-01-24T13:05:08.750Z,1.10
2019-01-24T13:10:18.643Z,0.77
2019-01-24T13:15:26.744Z,0.83
2019-01-24T13:20:33.591Z,0.50
2019-01-24T13:25:40.037Z,0.60
2019-01-24T13:30:49.315Z,0.90
2019-01-24T13:35:57.131Z,0.90
2019-01-24T13:41:08.435Z,0.97
2019-01-24T13:46:17.271Z,0.80
2019-01-24T13:51:26.232Z,0.60
2019-01-24T13:56:37.583Z,0.90
2019-01-24T14:01:45.640Z,1.13
2019-01-24T14:06:55.630Z,0.70
2019-01-24T14:12:04.722Z,1.00
2019-01-24T14:17:16.091Z,0.90
2019-01-24T14:22:25.198Z,0.70
2019-01-24T14:27:32.717Z,0.50
2019-01-24T14:32:39.830Z,0.50
2019-01-24T14:37:48.747Z,0.60
2019-01-24T14:42:56.431Z,0.50
2019-01-24T14:48:06.398Z,1.10
2019-01-24T14:53:14.550Z,1.30
2019-01-24T14:58:22.774Z,1.00
2019-01-24T15:03:29.214Z,0.70
2019-01-24T15:08:38.405Z,0.80
2019-01-24T15:13:44.294Z,1.70
2019-01-24T15:18:51.859Z,0.90
2019-01-24T15:23:58.083Z,0.80
2019-01-24T15:29:06.159Z,1.30
2019-01-24T15:34:13.529Z,1.40
2019-01-24T15:39:21.435Z,1.80
2019-01-24T15:44:27.358Z,1.30
2019-01-24T15:49:36.848Z,2.57
2019-01-24T15:54:44.000Z,1.53
2019-01-24T15:59:51.169Z,1.03
2019-01-24T16:04:58.718Z,1.20
2019-01-24T16:10:12.065Z,1.33
2019-01-24T16:15:25.983Z,1.23
2019-01-24T16:20:33.249Z,1.83
2019-01-24T16:25:40.789Z,1.73
2019-01-24T16:30:48.528Z,2.20
2019-01-24T16:35:54.695Z,2.10
2019-01-24T16:41:02.908Z,2.73
2019-01-24T16:46:11.807Z,2.63
2019-01-24T16:51:18.661Z,2.20
2019-01-24T16:56:24.762Z,1.80
2019-01-24T17:01:32.444Z,2.20
2019-01-24T17:06:38.697Z,1.70
2019-01-24T17:11:44.742Z,1.50
2019-01-24T17:16:51.479Z,2.07
2019-01-24T17:21:58.850Z,2.67
2019-01-24T17:27:07.587Z,1.90
2019-01-24T17:32:16.154Z,2.13
2019-01-24T17:37:26.286Z,2.30
2019-01-24T17:42:33.829Z,2.17
2019-01-24T17:47:41.516Z,2.20
2019-01-24T17:52:50.992Z,2.00
2019-01-24T17:58:00.174Z,1.90
2019-01-24T18:03:07.915Z,2.83
2019-01-24T18:08:14.031Z,2.50
2019-01-24T18:13:20.823Z,2.40
2019-01-24T18:18:28.520Z,2.50
2019-01-24T18:23:36.696Z,3.60
2019-01-24T18:28:44.042Z,4.30
2019-01-24T18:33:50.885Z,2.17
2019-01-24T18:38:59.054Z,2.23
2019-01-24T18:44:06.504Z,2.07
2019-01-24T18:49:14.660Z,2.23
2019-01-24T18:54:21.123Z,2.90
2019-01-24T18:59:27.725Z,2.53
2019-01-24T19:04:36.208Z,5.20
2019-01-24T19:09:45.700Z,2.90
2019-01-24T19:14:55.709Z,5.80
2019-01-24T19:20:04.002Z,4.33
2019-01-24T19:25:13.123Z,2.27
2019-01-24T19:30:28.155Z,4.20
2019-01-24T19:35:36.452Z,4.77
2019-01-24T19:40:45.111Z,3.73
2019-01-24T19:45:52.831Z,2.97
2019-01-24T19:50:59.279Z,3.40
2019-01-24T19:56:07.775Z,2.60
2019-01-24T20:01:14.889Z,7.53
2019-01-24T20:06:21.322Z,3.30
2019-01-24T20:11:28.679Z,3.53
2019-01-24T20:16:35.116Z,2.67
2019-01-24T20:21:41.606Z,5.40
2019-01-24T20:26:48.494Z,3.60
2019-01-24T20:31:55.619Z,3.17
2019-01-24T20:37:03.318Z,3.20
2019-01-24T20:42:10.989Z,3.60
2019-01-24T20:47:17.762Z,3.30
2019-01-24T20:52:27.079Z,2.60
2019-01-24T20:57:34.554Z,3.13
2019-01-24T21:02:42.234Z,6.60
2019-01-24T21:07:49.952Z,4.33
2019-01-24T21:12:58.926Z,2.50
2019-01-24T21:18:05.181Z,2.70
2019-01-24T21:23:13.315Z,2.60
2019-01-24T21:28:19.968Z,2.67
2019-01-24T21:33:27.743Z,2.43
2019-01-24T21:38:34.355Z,2.43
2019-01-24T21:43:44.457Z,2.50
2019-01-24T21:48:52.347Z,4.13
2019-01-24T21:54:00.058Z,2.90
2019-01-24T21:59:06.374Z,2.70
2019-01-24T22:04:14.210Z,2.00
2019-01-24T22:09:21.731Z,2.40
2019-01-24T22:14:28.943Z,2.13
2019-01-24T22:19:34.828Z,2.77
2019-01-24T22:24:43.024Z,2.23
2019-01-24T22:29:49.535Z,2.60
2019-01-24T22:34:58.381Z,2.20
2019-01-24T22:40:07.214Z,1.60
2019-01-24T22:45:22.300Z,1.50
2019-01-24T22:50:33.445Z,1.60
2019-01-24T22:55:44.094Z,1.50
2019-01-24T23:01:12.686Z,1.50
2019-01-24T23:06:20.050Z,1.37
2019-01-24T23:11:27.123Z,1.63
2019-01-24T23:16:35.045Z,1.50
2019-01-24T23:21:41.422Z,1.37
2019-01-24T23:26:48.034Z,1.10
2019-01-24T23:31:55.187Z,1.33
2019-01-24T23:37:02.911Z,1.10
2019-01-24T23:42:12.952Z,1.00
2019-01-24T23:47:20.696Z,1.13
2019-01-24T23:52:27.807Z,0.73
2019-01-24T23:57:36.171Z,0.73
